Time;durP1;ratioP1;P1;durP2;ratioP2;P2;SDS_P1;SDS_P2;PMS_P1;PMS_P2;Temp;Humidity;BMP_temperature;BMP_pressure;BME280_temperature;BME280_humidity;BME280_pressure;Samples;Min_cycle;Max_cycle;Signal;HPM_P1;HPM_P2
2023/07/25 00:01:09;;;;;;;;;2.25;2.25;;;;;;;;5053766;28;8775;-84
2023/07/25 00:03:37;;;;;;;;;3.75;3.75;;;;;;;;5052460;28;8982;-83
2023/07/25 00:06:07;;;;;;;;;2.00;2.00;;;;;;;;5050958;28;8877;-83
2023/07/25 00:08:35;;;;;;;;;4.25;4.25;;;;;;;;5050168;28;9712;-84
2023/07/25 00:11:02;;;;;;;;;5.75;4.00;;;;;;;;5053430;28;8933;-84
2023/07/25 00:13:29;;;;;;;;;4.75;4.75;;;;;;;;5054170;28;8859;-84
2023/07/25 00:15:59;;;;;;;;;5.25;5.25;;;;;;;;5054554;28;8858;-85
2023/07/25 00:18:26;;;;;;;;;4.25;4.25;;;;;;;;5054432;28;8859;-84
2023/07/25 00:20:53;;;;;;;;;4.75;3.00;;;;;;;;5054199;28;8916;-85
2023/07/25 00:23:20;;;;;;;;;4.75;4.25;;;;;;;;5054355;28;8912;-84
2023/07/25 00:25:48;;;;;;;;;4.50;3.25;;;;;;;;5054402;28;8961;-85
2023/07/25 00:28:17;;;;;;;;;5.00;4.75;;;;;;;;5053960;28;8859;-85
2023/07/25 00:30:45;;;;;;;;;3.00;3.00;;;;;;;;5053780;28;8816;-85
2023/07/25 00:33:16;;;;;;;;;4.50;4.50;;;;;;;;5054388;28;8851;-84
2023/07/25 00:35:45;;;;;;;;;3.25;3.25;;;;;;;;5057871;28;8863;-85
2023/07/25 00:38:15;;;;;;;;;5.00;4.00;;;;;;;;5060068;28;8881;-85
2023/07/25 00:40:42;;;;;;;;;4.50;4.50;;;;;;;;5054637;28;8989;-85
2023/07/25 00:43:09;;;;;;;;;6.00;5.00;;;;;;;;5053661;28;8875;-84
2023/07/25 00:45:39;;;;;;;;;5.50;5.25;;;;;;;;5053867;28;8855;-85
2023/07/25 00:48:07;;;;;;;;;4.25;3.00;;;;;;;;5054005;28;8854;-85
2023/07/25 00:50:36;;;;;;;;;5.50;5.50;;;;;;;;5053802;28;8908;-85
2023/07/25 00:53:04;;;;;;;;;6.25;6.25;;;;;;;;5053803;28;8855;-85
2023/07/25 00:55:31;;;;;;;;;4.25;4.25;;;;;;;;5055747;28;8842;-85
2023/07/25 00:57:59;;;;;;;;;4.75;4.75;;;;;;;;5057140;28;8848;-85
2023/07/25 01:00:26;;;;;;;;;4.75;4.00;;;;;;;;5053314;28;8751;-85
2023/07/25 01:02:54;;;;;;;;;2.25;2.25;;;;;;;;5053823;28;8866;-86
2023/07/25 01:05:21;;;;;;;;;7.00;5.00;;;;;;;;5053693;28;8878;-86
2023/07/25 01:07:50;;;;;;;;;6.00;6.00;;;;;;;;5053827;28;8851;-85
2023/07/25 01:10:17;;;;;;;;;4.75;4.75;;;;;;;;5054221;28;8866;-86
2023/07/25 01:12:47;;;;;;;;;6.00;6.00;;;;;;;;5055231;28;8858;-86
2023/07/25 01:15:15;;;;;;;;;6.50;6.50;;;;;;;;5057807;28;8847;-86
2023/07/25 01:17:42;;;;;;;;;5.00;5.00;;;;;;;;5055903;28;8858;-85
2023/07/25 01:20:10;;;;;;;;;4.00;4.00;;;;;;;;5056246;28;8924;-86
2023/07/25 01:22:38;;;;;;;;;4.25;4.25;;;;;;;;5053511;28;8846;-85
2023/07/25 01:25:09;;;;;;;;;5.00;5.00;;;;;;;;5054097;28;8855;-84
2023/07/25 01:27:36;;;;;;;;;4.00;4.00;;;;;;;;5053402;28;8867;-84
2023/07/25 01:30:04;;;;;;;;;5.75;5.50;;;;;;;;5052463;28;8870;-83
2023/07/25 01:32:32;;;;;;;;;5.25;5.25;;;;;;;;5053423;28;8873;-84
2023/07/25 01:34:59;;;;;;;;;5.00;5.00;;;;;;;;5053317;28;8854;-84
2023/07/25 01:37:26;;;;;;;;;2.75;2.00;;;;;;;;5054795;28;8997;-84
2023/07/25 01:39:54;;;;;;;;;6.00;6.00;;;;;;;;5054974;28;8847;-83
2023/07/25 01:42:22;;;;;;;;;5.25;5.25;;;;;;;;5053987;28;8894;-84
2023/07/25 01:44:50;;;;;;;;;6.75;6.25;;;;;;;;5053152;28;8863;-84
2023/07/25 01:47:17;;;;;;;;;5.25;5.25;;;;;;;;5053018;28;8875;-85
2023/07/25 01:49:45;;;;;;;;;5.00;5.00;;;;;;;;5058187;28;8847;-84
2023/07/25 01:52:18;;;;;;;;;5.25;5.25;;;;;;;;5057223;28;8936;-84
2023/07/25 01:54:45;;;;;;;;;4.00;4.00;;;;;;;;5053744;28;8977;-85
2023/07/25 01:57:16;;;;;;;;;7.00;5.25;;;;;;;;5052714;28;8855;-86
2023/07/25 01:59:45;;;;;;;;;5.75;5.75;;;;;;;;5052442;28;9005;-86
2023/07/25 02:02:15;;;;;;;;;5.75;5.75;;;;;;;;5051869;28;8899;-84
2023/07/25 02:04:43;;;;;;;;;8.50;8.50;;;;;;;;5052501;28;8883;-84
2023/07/25 02:07:10;;;;;;;;;5.75;5.75;;;;;;;;5052403;28;8855;-84
2023/07/25 02:09:37;;;;;;;;;6.00;6.00;;;;;;;;5052183;28;9009;-84
2023/07/25 02:12:05;;;;;;;;;6.50;5.75;;;;;;;;5052383;28;8881;-85
2023/07/25 02:14:33;;;;;;;;;6.25;6.25;;;;;;;;5052328;28;8908;-84
2023/07/25 02:17:02;;;;;;;;;7.00;6.50;;;;;;;;5051977;28;8879;-84
2023/07/25 02:19:29;;;;;;;;;6.00;5.75;;;;;;;;5050970;28;8879;-84
2023/07/25 02:21:56;;;;;;;;;6.25;6.25;;;;;;;;5052044;28;8851;-85
2023/07/25 02:24:23;;;;;;;;;9.50;8.00;;;;;;;;5052419;28;8881;-85
2023/07/25 02:26:51;;;;;;;;;6.25;6.25;;;;;;;;5057479;28;8873;-83
2023/07/25 02:29:18;;;;;;;;;8.75;7.75;;;;;;;;5058637;28;8879;-84
2023/07/25 02:31:46;;;;;;;;;6.25;6.25;;;;;;;;5055599;28;8857;-84
2023/07/25 02:34:16;;;;;;;;;9.00;7.50;;;;;;;;5051963;28;8863;-84
2023/07/25 02:36:45;;;;;;;;;9.25;8.00;;;;;;;;5052527;28;8858;-85
2023/07/25 02:39:13;;;;;;;;;7.25;7.25;;;;;;;;5052043;28;9069;-84
2023/07/25 02:41:40;;;;;;;;;9.00;7.00;;;;;;;;5051851;28;8859;-84
2023/07/25 02:44:10;;;;;;;;;7.00;6.75;;;;;;;;5052525;28;8851;-85
2023/07/25 02:46:39;;;;;;;;;10.00;7.50;;;;;;;;5052211;28;8969;-85
2023/07/25 02:49:06;;;;;;;;;8.75;8.50;;;;;;;;5052293;28;8969;-84
2023/07/25 02:51:35;;;;;;;;;6.50;5.00;;;;;;;;5051988;28;8863;-84
2023/07/25 02:54:02;;;;;;;;;7.75;7.75;;;;;;;;5051389;28;8871;-84
2023/07/25 02:56:30;;;;;;;;;8.00;8.00;;;;;;;;5051364;28;8865;-84
2023/07/25 02:58:57;;;;;;;;;7.50;7.00;;;;;;;;5051927;28;8866;-84
2023/07/25 03:01:24;;;;;;;;;7.50;7.50;;;;;;;;5051043;28;8902;-85
2023/07/25 03:03:51;;;;;;;;;10.50;9.50;;;;;;;;5053148;28;8863;-84
2023/07/25 03:06:19;;;;;;;;;8.25;8.25;;;;;;;;5053770;28;8895;-84
2023/07/25 03:08:47;;;;;;;;;11.00;9.00;;;;;;;;5054019;28;8881;-84
2023/07/25 03:11:15;;;;;;;;;9.75;8.00;;;;;;;;5052505;28;8867;-85
2023/07/25 03:13:42;;;;;;;;;8.00;8.00;;;;;;;;5052545;28;8851;-84
2023/07/25 03:16:10;;;;;;;;;7.25;7.25;;;;;;;;5053556;28;8878;-84
2023/07/25 03:18:40;;;;;;;;;8.75;7.00;;;;;;;;5054967;28;8875;-85
2023/07/25 03:21:07;;;;;;;;;8.25;8.25;;;;;;;;5052892;28;8842;-84
2023/07/25 03:23:34;;;;;;;;;8.00;8.00;;;;;;;;5052226;28;8901;-85
2023/07/25 03:26:03;;;;;;;;;9.25;9.25;;;;;;;;5051093;28;8978;-85
2023/07/25 03:28:31;;;;;;;;;7.25;7.25;;;;;;;;5051075;28;8863;-86
2023/07/25 03:30:58;;;;;;;;;7.00;7.00;;;;;;;;5050675;28;8792;-85
2023/07/25 03:33:27;;;;;;;;;8.00;8.00;;;;;;;;5050754;28;8875;-86
2023/07/25 03:35:54;;;;;;;;;7.00;7.00;;;;;;;;5050849;28;8859;-85
2023/07/25 03:38:22;;;;;;;;;10.25;8.00;;;;;;;;5056021;28;8862;-83
2023/07/25 03:40:49;;;;;;;;;8.75;8.75;;;;;;;;5054293;28;8899;-85
2023/07/25 03:43:21;;;;;;;;;7.50;6.00;;;;;;;;5051300;28;8855;-85
2023/07/25 03:45:48;;;;;;;;;9.75;8.00;;;;;;;;5049994;28;8851;-85
2023/07/25 03:48:16;;;;;;;;;11.00;8.00;;;;;;;;5048769;28;8867;-85
2023/07/25 03:50:43;;;;;;;;;9.25;9.25;;;;;;;;5050047;28;8859;-85
2023/07/25 03:53:13;;;;;;;;;7.75;7.75;;;;;;;;5050292;28;8854;-85
2023/07/25 03:55:40;;;;;;;;;9.00;9.00;;;;;;;;5050178;28;8890;-85
2023/07/25 03:58:07;;;;;;;;;8.00;8.00;;;;;;;;5050629;28;8876;-84
2023/07/25 04:00:41;;;;;;;;;8.25;8.00;;;;;;;;5049690;28;8763;-84
2023/07/25 04:03:09;;;;;;;;;8.50;7.50;;;;;;;;5050022;28;8854;-84
2023/07/25 04:05:37;;;;;;;;;8.25;8.25;;;;;;;;5049893;28;8843;-84
2023/07/25 04:08:04;;;;;;;;;6.25;6.25;;;;;;;;5049614;28;8977;-85
2023/07/25 04:10:31;;;;;;;;;11.25;9.50;;;;;;;;5050116;28;8869;-84
2023/07/25 04:12:59;;;;;;;;;13.25;9.75;;;;;;;;5050577;28;8969;-84
2023/07/25 04:15:26;;;;;;;;;9.50;9.00;;;;;;;;5054135;28;8847;-83
2023/07/25 04:17:56;;;;;;;;;7.75;7.75;;;;;;;;5050085;28;9570;-83
2023/07/25 04:20:23;;;;;;;;;9.00;8.00;;;;;;;;5050119;28;8878;-84
2023/07/25 04:22:51;;;;;;;;;7.50;7.50;;;;;;;;5049940;28;8989;-85
2023/07/25 04:25:18;;;;;;;;;10.75;9.75;;;;;;;;5049650;28;8851;-85
2023/07/25 04:27:48;;;;;;;;;10.25;9.50;;;;;;;;5049653;28;8936;-84
2023/07/25 04:30:20;;;;;;;;;12.00;12.00;;;;;;;;5048985;28;8993;-84
2023/07/25 04:32:47;;;;;;;;;13.50;9.75;;;;;;;;5049705;28;8936;-85
2023/07/25 04:35:16;;;;;;;;;12.00;10.50;;;;;;;;5049299;28;8883;-84
2023/07/25 04:37:49;;;;;;;;;10.00;10.00;;;;;;;;5048791;28;8851;-82
2023/07/25 04:40:17;;;;;;;;;9.50;9.50;;;;;;;;5049596;28;8929;-85
2023/07/25 04:42:46;;;;;;;;;10.00;7.75;;;;;;;;5048825;28;8944;-84
2023/07/25 04:45:14;;;;;;;;;11.25;9.75;;;;;;;;5049501;28;8927;-84
2023/07/25 04:47:41;;;;;;;;;10.50;10.50;;;;;;;;5049906;28;8847;-83
2023/07/25 04:50:09;;;;;;;;;11.75;10.25;;;;;;;;5051502;28;8851;-83
2023/07/25 04:52:42;;;;;;;;;9.25;8.00;;;;;;;;5053474;28;8867;-82
2023/07/25 04:55:10;;;;;;;;;10.00;10.00;;;;;;;;5053643;28;8862;-83
2023/07/25 04:57:39;;;;;;;;;7.75;7.75;;;;;;;;5056221;28;8847;-84
2023/07/25 05:00:10;;;;;;;;;11.25;10.75;;;;;;;;5053670;28;8960;-82
2023/07/25 05:02:37;;;;;;;;;12.50;12.50;;;;;;;;5053232;28;8910;-85
2023/07/25 05:05:05;;;;;;;;;16.25;13.75;;;;;;;;5052259;28;8878;-85
2023/07/25 05:07:32;;;;;;;;;16.50;14.00;;;;;;;;5053035;28;8882;-84
2023/07/25 05:10:01;;;;;;;;;16.25;15.00;;;;;;;;5052571;28;8860;-84
2023/07/25 05:12:28;;;;;;;;;17.25;17.25;;;;;;;;5053329;28;9741;-82
2023/07/25 05:14:55;;;;;;;;;17.00;15.50;;;;;;;;5053254;28;8855;-84
2023/07/25 05:17:24;;;;;;;;;17.25;17.25;;;;;;;;5056344;28;8847;-83
2023/07/25 05:19:51;;;;;;;;;20.50;19.00;;;;;;;;5054150;28;8859;-84
2023/07/25 05:22:18;;;;;;;;;12.50;12.50;;;;;;;;5053105;28;8846;-84
2023/07/25 05:24:46;;;;;;;;;18.50;17.00;;;;;;;;5053592;28;8858;-85
2023/07/25 05:27:17;;;;;;;;;17.00;17.00;;;;;;;;5057825;28;8887;-84
2023/07/25 05:29:44;;;;;;;;;15.50;15.50;;;;;;;;5054609;28;8861;-84
2023/07/25 05:32:11;;;;;;;;;15.50;14.50;;;;;;;;5052873;28;8926;-84
2023/07/25 05:34:39;;;;;;;;;16.00;12.75;;;;;;;;5052685;28;8978;-86
2023/07/25 05:37:07;;;;;;;;;14.25;14.25;;;;;;;;5052356;28;9648;-84
2023/07/25 05:39:40;;;;;;;;;12.00;12.00;;;;;;;;5052119;28;8965;-83
2023/07/25 05:42:07;;;;;;;;;13.50;13.50;;;;;;;;5052234;28;8862;-85
2023/07/25 05:44:36;;;;;;;;;14.25;14.25;;;;;;;;5052079;28;8863;-84
2023/07/25 05:47:06;;;;;;;;;16.50;16.00;;;;;;;;5052037;28;8950;-84
2023/07/25 05:49:33;;;;;;;;;14.50;14.50;;;;;;;;5052411;28;8882;-84
2023/07/25 05:52:00;;;;;;;;;12.75;11.50;;;;;;;;5052648;28;8855;-84
2023/07/25 05:54:29;;;;;;;;;14.50;13.50;;;;;;;;5052452;28;8871;-84
2023/07/25 05:56:57;;;;;;;;;15.75;15.25;;;;;;;;5052143;28;8897;-87
2023/07/25 05:59:24;;;;;;;;;11.75;11.75;;;;;;;;5052291;28;8863;-86
2023/07/25 06:01:54;;;;;;;;;12.00;12.00;;;;;;;;5055852;28;8808;-84
2023/07/25 06:04:24;;;;;;;;;10.75;10.75;;;;;;;;5057306;28;8871;-83
2023/07/25 06:06:51;;;;;;;;;6.25;6.25;;;;;;;;5052316;28;8925;-84
2023/07/25 06:09:19;;;;;;;;;8.00;8.00;;;;;;;;5051922;28;8877;-83
2023/07/25 06:11:46;;;;;;;;;7.00;7.00;;;;;;;;5052114;28;8866;-82
2023/07/25 06:14:14;;;;;;;;;8.75;7.50;;;;;;;;5051174;28;8847;-83
2023/07/25 06:16:41;;;;;;;;;7.00;7.00;;;;;;;;5051448;28;8836;-83
2023/07/25 06:19:10;;;;;;;;;7.75;7.75;;;;;;;;5050709;28;9016;-80
2023/07/25 06:21:37;;;;;;;;;7.25;5.75;;;;;;;;5050722;28;8855;-80
2023/07/25 06:24:05;;;;;;;;;6.00;5.00;;;;;;;;5050503;28;8865;-80
2023/07/25 06:26:32;;;;;;;;;5.00;5.00;;;;;;;;5051258;28;8993;-80
2023/07/25 06:29:00;;;;;;;;;7.50;5.00;;;;;;;;5051211;28;8839;-82
2023/07/25 06:31:27;;;;;;;;;3.00;3.00;;;;;;;;5051871;28;8791;-78
2023/07/25 06:33:54;;;;;;;;;3.00;3.00;;;;;;;;5051820;28;8975;-77
2023/07/25 06:36:23;;;;;;;;;3.00;3.00;;;;;;;;5051291;28;8866;-78
2023/07/25 06:38:50;;;;;;;;;5.75;4.00;;;;;;;;5051754;28;8981;-76
2023/07/25 06:41:17;;;;;;;;;2.50;2.50;;;;;;;;5051650;28;8881;-76
2023/07/25 06:43:44;;;;;;;;;2.75;2.75;;;;;;;;5050517;28;8859;-76
2023/07/25 06:46:11;;;;;;;;;2.75;2.75;;;;;;;;5050347;28;8961;-76
2023/07/25 06:48:39;;;;;;;;;4.75;3.50;;;;;;;;5050302;28;8879;-76
2023/07/25 06:51:06;;;;;;;;;3.75;2.00;;;;;;;;5050081;28;8989;-77
2023/07/25 06:53:35;;;;;;;;;3.50;2.00;;;;;;;;5050263;28;9642;-76
2023/07/25 06:56:02;;;;;;;;;3.00;3.00;;;;;;;;5050352;28;8858;-76
2023/07/25 06:58:29;;;;;;;;;3.00;3.00;;;;;;;;5049536;28;8859;-77
2023/07/25 07:00:58;;;;;;;;;2.75;2.75;;;;;;;;5049295;28;8797;-77
2023/07/25 07:03:25;;;;;;;;;2.25;1.75;;;;;;;;5049818;28;9730;-77
2023/07/25 07:05:53;;;;;;;;;3.75;2.00;;;;;;;;5049910;28;8944;-76
2023/07/25 07:08:20;;;;;;;;;4.00;3.75;;;;;;;;5050221;28;8847;-77
2023/07/25 07:10:53;;;;;;;;;3.00;3.00;;;;;;;;5050000;28;8843;-77
2023/07/25 07:13:20;;;;;;;;;2.25;2.25;;;;;;;;5049817;28;8874;-76
2023/07/25 07:15:48;;;;;;;;;1.00;1.00;;;;;;;;5050198;28;8871;-76
2023/07/25 07:18:16;;;;;;;;;2.00;2.00;;;;;;;;5049645;28;8998;-76
2023/07/25 07:20:50;;;;;;;;;3.00;1.00;;;;;;;;5049656;28;8878;-78
2023/07/25 07:23:20;;;;;;;;;1.75;1.75;;;;;;;;5049580;28;8862;-77
2023/07/25 07:25:51;;;;;;;;;1.25;1.25;;;;;;;;5050000;28;8859;-77
2023/07/25 07:28:21;;;;;;;;;1.00;1.00;;;;;;;;5049955;28;8874;-77
2023/07/25 07:30:50;;;;;;;;;1.00;1.00;;;;;;;;5049371;28;8918;-77
2023/07/25 07:33:17;;;;;;;;;1.00;1.00;;;;;;;;5049766;28;8847;-77
2023/07/25 07:35:44;;;;;;;;;0.50;0.50;;;;;;;;5049990;28;8881;-77
2023/07/25 07:38:12;;;;;;;;;2.00;2.00;;;;;;;;5049669;28;8839;-77
2023/07/25 07:40:39;;;;;;;;;2.00;2.00;;;;;;;;5049582;28;8877;-77
2023/07/25 07:43:08;;;;;;;;;1.75;1.75;;;;;;;;5048807;28;8881;-77
2023/07/25 07:45:35;;;;;;;;;2.00;2.00;;;;;;;;5049224;28;8855;-77
2023/07/25 07:48:02;;;;;;;;;0.00;0.00;;;;;;;;5049075;28;8993;-76
2023/07/25 07:50:33;;;;;;;;;2.00;0.00;;;;;;;;5049640;28;8865;-76
2023/07/25 07:53:00;;;;;;;;;2.00;2.00;;;;;;;;5049238;28;8948;-77
2023/07/25 07:55:28;;;;;;;;;2.75;2.75;;;;;;;;5049468;28;8975;-76
2023/07/25 07:57:56;;;;;;;;;2.25;1.00;;;;;;;;5049196;28;8844;-77
2023/07/25 08:00:24;;;;;;;;;2.50;2.50;;;;;;;;5049158;28;8836;-77
2023/07/25 08:02:52;;;;;;;;;3.00;3.00;;;;;;;;5050603;28;8970;-77
2023/07/25 08:05:19;;;;;;;;;2.50;2.50;;;;;;;;5051405;28;8886;-78
2023/07/25 08:07:46;;;;;;;;;1.75;1.75;;;;;;;;5052449;28;8891;-77
2023/07/25 08:10:14;;;;;;;;;2.25;2.25;;;;;;;;5052657;28;8965;-78
2023/07/25 08:12:41;;;;;;;;;5.75;3.00;;;;;;;;5052523;28;8867;-78
2023/07/25 08:15:09;;;;;;;;;3.00;3.00;;;;;;;;5052612;28;8843;-78
2023/07/25 08:17:37;;;;;;;;;6.75;4.00;;;;;;;;5051608;28;8831;-78
2023/07/25 08:20:05;;;;;;;;;3.50;2.50;;;;;;;;5050023;28;8847;-77
2023/07/25 08:22:33;;;;;;;;;2.00;2.00;;;;;;;;5049537;28;8851;-76
2023/07/25 08:25:00;;;;;;;;;3.75;3.75;;;;;;;;5049584;28;8964;-77
2023/07/25 08:27:27;;;;;;;;;5.75;5.75;;;;;;;;5048970;28;8993;-77
2023/07/25 08:29:54;;;;;;;;;5.00;5.00;;;;;;;;5048654;28;8846;-77
2023/07/25 08:32:21;;;;;;;;;5.25;3.75;;;;;;;;5052626;28;9639;-78
2023/07/25 08:34:50;;;;;;;;;4.00;4.00;;;;;;;;5053099;28;8889;-77
2023/07/25 08:37:17;;;;;;;;;9.25;7.75;;;;;;;;5052780;28;8936;-77
2023/07/25 08:39:45;;;;;;;;;8.25;8.25;;;;;;;;5052549;28;8900;-78
2023/07/25 08:42:12;;;;;;;;;6.75;5.50;;;;;;;;5052532;28;8900;-78
2023/07/25 08:44:41;;;;;;;;;6.25;6.25;;;;;;;;5052940;28;8862;-77
2023/07/25 08:47:13;;;;;;;;;7.25;5.75;;;;;;;;5052336;28;8855;-77
2023/07/25 08:49:42;;;;;;;;;6.75;5.75;;;;;;;;5052903;28;8851;-76
2023/07/25 08:52:12;;;;;;;;;8.00;8.00;;;;;;;;5052407;28;8855;-76
2023/07/25 08:54:40;;;;;;;;;9.25;8.00;;;;;;;;5052875;28;8839;-76
2023/07/25 08:57:08;;;;;;;;;9.00;7.25;;;;;;;;5052354;28;9626;-77
2023/07/25 08:59:36;;;;;;;;;8.50;8.50;;;;;;;;5052901;28;8889;-77
2023/07/25 09:02:04;;;;;;;;;6.00;6.00;;;;;;;;5052550;28;8787;-77
2023/07/25 09:04:31;;;;;;;;;10.00;8.50;;;;;;;;5052779;28;8978;-77
2023/07/25 09:06:58;;;;;;;;;9.75;9.25;;;;;;;;5052319;28;8885;-77
2023/07/25 09:09:27;;;;;;;;;10.75;10.75;;;;;;;;5052205;28;8875;-78
2023/07/25 09:11:55;;;;;;;;;9.50;8.50;;;;;;;;5052162;28;8977;-78
2023/07/25 09:14:22;;;;;;;;;10.75;9.25;;;;;;;;5052346;28;8848;-78
2023/07/25 09:16:49;;;;;;;;;10.25;9.25;;;;;;;;5052565;28;8969;-77
2023/07/25 09:19:17;;;;;;;;;9.25;9.25;;;;;;;;5051786;28;8843;-77
2023/07/25 09:21:48;;;;;;;;;9.00;9.00;;;;;;;;5052423;28;8851;-78
2023/07/25 09:24:16;;;;;;;;;10.50;10.50;;;;;;;;5052204;28;8871;-79
2023/07/25 09:26:51;;;;;;;;;10.75;10.75;;;;;;;;5052231;28;8855;-78
2023/07/25 09:29:20;;;;;;;;;11.00;11.00;;;;;;;;5051919;28;8912;-78
2023/07/25 09:31:48;;;;;;;;;9.75;8.50;;;;;;;;5051593;28;8791;-78
2023/07/25 09:34:18;;;;;;;;;12.00;10.80;;;;;;;;5051962;28;8881;-77
2023/07/25 09:36:47;;;;;;;;;10.40;10.40;;;;;;;;5052632;28;8890;-79
2023/07/25 09:39:15;;;;;;;;;12.40;12.40;;;;;;;;5052963;28;8843;-78
2023/07/25 09:41:42;;;;;;;;;11.00;10.60;;;;;;;;5053099;28;8971;-78
2023/07/25 09:44:11;;;;;;;;;10.60;10.60;;;;;;;;5052782;28;8867;-78
2023/07/25 09:46:39;;;;;;;;;11.80;11.00;;;;;;;;5053494;28;8835;-79
2023/07/25 09:49:06;;;;;;;;;11.40;10.60;;;;;;;;5053524;28;8898;-78
2023/07/25 09:51:33;;;;;;;;;12.20;11.00;;;;;;;;5053558;28;8843;-78
2023/07/25 09:54:00;;;;;;;;;11.60;11.60;;;;;;;;5052274;28;8981;-78
2023/07/25 09:56:28;;;;;;;;;12.40;12.40;;;;;;;;5052004;28;8855;-78
2023/07/25 09:58:56;;;;;;;;;11.40;11.40;;;;;;;;5051356;28;8855;-79
2023/07/25 10:01:25;;;;;;;;;9.80;9.80;;;;;;;;5051048;28;8791;-77
2023/07/25 10:03:54;;;;;;;;;8.40;8.40;;;;;;;;5051500;28;8889;-77
2023/07/25 10:06:21;;;;;;;;;11.00;9.80;;;;;;;;5051658;28;8867;-78
2023/07/25 10:08:49;;;;;;;;;6.40;6.40;;;;;;;;5051603;28;8969;-78
2023/07/25 10:11:17;;;;;;;;;7.40;7.40;;;;;;;;5051113;28;8875;-79
2023/07/25 10:13:44;;;;;;;;;6.40;6.00;;;;;;;;5051162;28;8979;-78
2023/07/25 10:16:14;;;;;;;;;5.00;5.00;;;;;;;;5051419;28;8855;-77
2023/07/25 10:18:42;;;;;;;;;5.00;5.00;;;;;;;;5051319;28;8871;-78
2023/07/25 10:21:12;;;;;;;;;4.20;4.20;;;;;;;;5051582;28;8863;-78
2023/07/25 10:23:39;;;;;;;;;3.80;3.80;;;;;;;;5051578;28;8863;-78
2023/07/25 10:26:13;;;;;;;;;4.00;3.00;;;;;;;;5051157;28;8859;-78
2023/07/25 10:28:41;;;;;;;;;3.20;3.20;;;;;;;;5050637;28;8875;-77
2023/07/25 10:31:09;;;;;;;;;3.20;3.20;;;;;;;;5050579;28;8799;-77
2023/07/25 10:33:43;;;;;;;;;3.80;3.80;;;;;;;;5051165;28;9673;-77
2023/07/25 10:36:23;;;;;;;;;3.40;3.00;;;;;;;;5051072;28;8858;-77
2023/07/25 10:38:50;;;;;;;;;3.00;3.00;;;;;;;;5050946;28;8858;-77
2023/07/25 10:41:18;;;;;;;;;4.00;4.00;;;;;;;;5050769;28;8859;-77
2023/07/25 10:43:56;;;;;;;;;2.00;2.00;;;;;;;;5050503;28;8933;-77
2023/07/25 10:46:28;;;;;;;;;3.00;3.00;;;;;;;;5050717;28;8847;-76
2023/07/25 10:48:57;;;;;;;;;3.40;3.40;;;;;;;;5050420;28;8835;-79
2023/07/25 10:51:24;;;;;;;;;3.00;3.00;;;;;;;;5050904;28;8858;-79
2023/07/25 10:54:08;;;;;;;;;3.80;3.80;;;;;;;;5050421;28;8959;-79
2023/07/25 10:56:35;;;;;;;;;2.80;2.80;;;;;;;;5050420;28;8870;-79
2023/07/25 10:59:05;;;;;;;;;3.60;3.60;;;;;;;;5050278;28;8878;-80
2023/07/25 11:01:34;;;;;;;;;2.80;2.80;;;;;;;;5050116;28;8921;-79
2023/07/25 11:04:28;;;;;;;;;3.00;3.00;;;;;;;;5050411;28;8866;-76
2023/07/25 11:06:56;;;;;;;;;2.60;2.60;;;;;;;;5050127;28;8851;-76
2023/07/25 11:09:24;;;;;;;;;3.40;2.40;;;;;;;;5050471;28;8855;-76
2023/07/25 11:11:53;;;;;;;;;2.00;2.00;;;;;;;;5050573;28;8978;-77
2023/07/25 11:14:22;;;;;;;;;2.80;2.80;;;;;;;;5050183;28;8831;-77
2023/07/25 11:16:52;;;;;;;;;3.00;1.80;;;;;;;;5050741;28;8850;-76
2023/07/25 11:19:21;;;;;;;;;1.80;1.80;;;;;;;;5050304;28;8855;-77
2023/07/25 11:21:50;;;;;;;;;4.00;2.20;;;;;;;;5050602;28;9631;-78
2023/07/25 11:24:19;;;;;;;;;4.40;3.00;;;;;;;;5050628;28;8866;-78
2023/07/25 11:26:46;;;;;;;;;1.80;1.80;;;;;;;;5050949;28;8977;-79
2023/07/25 11:29:14;;;;;;;;;3.00;1.80;;;;;;;;5050774;28;8863;-78
2023/07/25 11:31:49;;;;;;;;;1.60;1.60;;;;;;;;5050141;28;8805;-78
2023/07/25 11:34:19;;;;;;;;;3.00;2.00;;;;;;;;5050324;28;8873;-77
2023/07/25 11:36:47;;;;;;;;;2.80;2.80;;;;;;;;5049675;28;8849;-77
2023/07/25 11:39:18;;;;;;;;;1.60;1.60;;;;;;;;5049521;28;8882;-77
2023/07/25 11:41:46;;;;;;;;;1.60;1.60;;;;;;;;5049482;28;8885;-77
2023/07/25 11:44:15;;;;;;;;;2.40;2.40;;;;;;;;5049563;28;9451;-77
2023/07/25 11:46:48;;;;;;;;;1.40;1.40;;;;;;;;5050016;28;8975;-77
2023/07/25 11:49:16;;;;;;;;;2.60;2.60;;;;;;;;5051646;28;9021;-77
2023/07/25 11:51:44;;;;;;;;;2.80;2.80;;;;;;;;5051281;28;9003;-77
2023/07/25 11:54:11;;;;;;;;;1.80;1.80;;;;;;;;5049436;28;8861;-76
2023/07/25 11:56:40;;;;;;;;;3.20;3.20;;;;;;;;5049557;28;8969;-77
2023/07/25 11:59:12;;;;;;;;;1.80;1.80;;;;;;;;5049458;28;9022;-77
2023/07/25 12:01:39;;;;;;;;;0.80;0.80;;;;;;;;5048966;28;9570;-77
2023/07/25 12:04:15;;;;;;;;;2.20;2.20;;;;;;;;5049678;28;8961;-77
2023/07/25 12:06:43;;;;;;;;;1.20;1.20;;;;;;;;5048709;28;8863;-77
2023/07/25 12:09:10;;;;;;;;;2.40;1.80;;;;;;;;5049009;28;8881;-77
2023/07/25 12:11:45;;;;;;;;;2.20;2.20;;;;;;;;5049484;28;8950;-77
2023/07/25 12:14:13;;;;;;;;;1.20;1.20;;;;;;;;5048830;28;8831;-77
2023/07/25 12:16:45;;;;;;;;;2.00;2.00;;;;;;;;5049086;28;8870;-77
2023/07/25 12:19:13;;;;;;;;;0.00;0.00;;;;;;;;5049007;28;9634;-77
2023/07/25 12:21:42;;;;;;;;;1.40;1.40;;;;;;;;5049005;28;8866;-78
2023/07/25 12:24:10;;;;;;;;;1.80;1.80;;;;;;;;5048733;28;9001;-78
2023/07/25 12:26:46;;;;;;;;;2.00;1.60;;;;;;;;5049314;28;8855;-78
2023/07/25 12:29:14;;;;;;;;;1.20;1.20;;;;;;;;5048916;28;9477;-78
2023/07/25 12:31:42;;;;;;;;;1.20;1.20;;;;;;;;5048980;28;8792;-78
2023/07/25 12:34:09;;;;;;;;;2.00;2.00;;;;;;;;5049145;28;8883;-78
2023/07/25 12:36:36;;;;;;;;;0.80;0.80;;;;;;;;5049204;28;8858;-78
2023/07/25 12:39:04;;;;;;;;;0.80;0.80;;;;;;;;5049097;28;8858;-78
2023/07/25 12:41:31;;;;;;;;;1.60;1.60;;;;;;;;5049072;28;9776;-78
2023/07/25 12:44:00;;;;;;;;;2.60;1.60;;;;;;;;5049414;28;8957;-78
2023/07/25 12:46:27;;;;;;;;;1.00;1.00;;;;;;;;5049605;28;9604;-79
2023/07/25 12:48:55;;;;;;;;;2.80;2.80;;;;;;;;5048827;28;8893;-78
2023/07/25 12:51:22;;;;;;;;;1.00;1.00;;;;;;;;5048896;28;8970;-79
2023/07/25 12:53:50;;;;;;;;;0.80;0.80;;;;;;;;5049027;28;8883;-79
2023/07/25 12:56:17;;;;;;;;;0.80;0.80;;;;;;;;5049061;28;8851;-79
2023/07/25 12:58:44;;;;;;;;;1.40;1.40;;;;;;;;5049482;28;8835;-80
2023/07/25 13:01:13;;;;;;;;;3.00;1.40;;;;;;;;5049232;28;8925;-79
2023/07/25 13:03:41;;;;;;;;;1.80;1.80;;;;;;;;5050660;28;8968;-79
2023/07/25 13:06:09;;;;;;;;;1.40;1.40;;;;;;;;5049944;28;8870;-79
2023/07/25 13:08:37;;;;;;;;;1.60;1.60;;;;;;;;5047963;28;8993;-78
2023/07/25 13:11:04;;;;;;;;;1.20;1.20;;;;;;;;5048570;28;8999;-78
2023/07/25 13:13:31;;;;;;;;;0.80;0.80;;;;;;;;5049044;28;8916;-78
2023/07/25 13:15:58;;;;;;;;;0.40;0.20;;;;;;;;5048820;28;8869;-78
2023/07/25 13:18:27;;;;;;;;;0.80;0.80;;;;;;;;5051816;28;8881;-78
2023/07/25 13:20:54;;;;;;;;;2.20;1.40;;;;;;;;5051633;28;9084;-78
2023/07/25 13:23:22;;;;;;;;;1.60;1.60;;;;;;;;5052484;28;8956;-78
2023/07/25 13:25:49;;;;;;;;;1.00;1.00;;;;;;;;5052478;28;8855;-78
2023/07/25 13:28:16;;;;;;;;;2.00;1.80;;;;;;;;5051531;28;8835;-78
2023/07/25 13:30:44;;;;;;;;;1.20;1.20;;;;;;;;5051549;28;9546;-78
2023/07/25 13:33:11;;;;;;;;;0.80;0.80;;;;;;;;5051717;28;9807;-78
2023/07/25 13:35:39;;;;;;;;;0.00;0.00;;;;;;;;5051773;28;8858;-78
2023/07/25 13:38:07;;;;;;;;;1.60;0.20;;;;;;;;5051630;28;8962;-79
2023/07/25 13:40:34;;;;;;;;;0.80;0.80;;;;;;;;5052145;28;8906;-78
2023/07/25 13:43:01;;;;;;;;;0.20;0.20;;;;;;;;5051361;28;8862;-79
2023/07/25 13:45:29;;;;;;;;;0.20;0.20;;;;;;;;5051935;28;8883;-78
2023/07/25 13:47:56;;;;;;;;;2.80;1.40;;;;;;;;5051186;28;8858;-79
2023/07/25 13:50:23;;;;;;;;;0.80;0.80;;;;;;;;5051809;28;8839;-78
2023/07/25 13:52:52;;;;;;;;;0.60;0.60;;;;;;;;5051308;28;8857;-78
2023/07/25 13:55:20;;;;;;;;;0.40;0.20;;;;;;;;5053992;28;8985;-78
2023/07/25 13:57:47;;;;;;;;;0.20;0.20;;;;;;;;5054125;28;9688;-79
2023/07/25 14:00:16;;;;;;;;;1.00;0.00;;;;;;;;5052529;28;8866;-78
2023/07/25 14:02:43;;;;;;;;;0.20;0.20;;;;;;;;5051408;28;8854;-79
2023/07/25 14:05:10;;;;;;;;;1.40;0.20;;;;;;;;5051194;28;8993;-78
2023/07/25 14:07:38;;;;;;;;;1.80;0.20;;;;;;;;5051490;28;8851;-78
2023/07/25 14:10:07;;;;;;;;;0.80;0.80;;;;;;;;5051512;28;8855;-79
2023/07/25 14:12:35;;;;;;;;;0.20;0.20;;;;;;;;5051044;28;8865;-79
2023/07/25 14:15:02;;;;;;;;;1.80;0.80;;;;;;;;5050993;28;8879;-79
2023/07/25 14:17:29;;;;;;;;;0.60;0.60;;;;;;;;5051242;28;8851;-78
2023/07/25 14:19:57;;;;;;;;;0.00;0.00;;;;;;;;5051081;28;9689;-79
2023/07/25 14:22:24;;;;;;;;;0.00;0.00;;;;;;;;5051262;28;8846;-78
2023/07/25 14:24:51;;;;;;;;;1.20;1.20;;;;;;;;5051626;28;8886;-79
2023/07/25 14:27:22;;;;;;;;;0.00;0.00;;;;;;;;5051282;28;8855;-78
2023/07/25 14:29:50;;;;;;;;;0.80;0.80;;;;;;;;5050467;28;8851;-79
2023/07/25 14:32:17;;;;;;;;;0.20;0.20;;;;;;;;5051073;28;8837;-78
2023/07/25 14:34:44;;;;;;;;;0.40;0.40;;;;;;;;5051890;28;8985;-79
2023/07/25 14:37:12;;;;;;;;;0.20;0.20;;;;;;;;5052954;28;8917;-78
2023/07/25 14:39:39;;;;;;;;;4.00;0.80;;;;;;;;5054248;28;8863;-79
2023/07/25 14:42:07;;;;;;;;;0.20;0.20;;;;;;;;5054097;28;8993;-80
2023/07/25 14:44:35;;;;;;;;;0.80;0.80;;;;;;;;5054119;28;8879;-79
2023/07/25 14:47:03;;;;;;;;;0.20;0.20;;;;;;;;5052237;28;8878;-79
2023/07/25 14:49:30;;;;;;;;;0.00;0.00;;;;;;;;5051414;28;8851;-79
2023/07/25 14:51:58;;;;;;;;;0.80;0.80;;;;;;;;5050476;28;8901;-78
2023/07/25 14:54:25;;;;;;;;;0.20;0.20;;;;;;;;5050342;28;8953;-79
2023/07/25 14:56:52;;;;;;;;;1.00;1.00;;;;;;;;5050571;28;8863;-78
2023/07/25 14:59:20;;;;;;;;;0.00;0.00;;;;;;;;5050958;28;8961;-79